sensor_id;sensor_type;location;lat;lon;timestamp;temperature;humidity
44509;DHT22;30214;52.246;14.408;2023-01-28T00:00:56;-1.00;99.90
44509;DHT22;30214;52.246;14.408;2023-01-28T00:03:23;-1.00;99.90
44509;DHT22;30214;52.246;14.408;2023-01-28T00:05:52;-1.00;99.90
44509;DHT22;30214;52.246;14.408;2023-01-28T00:08:27;-1.10;99.90
44509;DHT22;30214;52.246;14.408;2023-01-28T00:10:57;-1.10;99.90
44509;DHT22;30214;52.246;14.408;2023-01-28T00:13:25;-1.10;99.90
44509;DHT22;30214;52.246;14.408;2023-01-28T00:15:54;-1.20;99.90
44509;DHT22;30214;52.246;14.408;2023-01-28T00:18:22;-1.20;99.90
44509;DHT22;30214;52.246;14.408;2023-01-28T00:20:57;-1.20;99.90
44509;DHT22;30214;52.246;14.408;2023-01-28T00:23:24;-1.20;99.90
44509;DHT22;30214;52.246;14.408;2023-01-28T00:25:51;-1.20;99.90
44509;DHT22;30214;52.246;14.408;2023-01-28T00:28:19;-1.10;99.90
44509;DHT22;30214;52.246;14.408;2023-01-28T00:30:46;-1.20;99.90
44509;DHT22;30214;52.246;14.408;2023-01-28T00:33:13;-1.20;99.90
44509;DHT22;30214;52.246;14.408;2023-01-28T00:35:40;-1.30;99.90
44509;DHT22;30214;52.246;14.408;2023-01-28T00:38:09;-1.30;99.90
44509;DHT22;30214;52.246;14.408;2023-01-28T00:40:37;-1.40;99.90
44509;DHT22;30214;52.246;14.408;2023-01-28T00:43:04;-1.40;99.90
44509;DHT22;30214;52.246;14.408;2023-01-28T00:45:31;-1.40;99.90
44509;DHT22;30214;52.246;14.408;2023-01-28T00:48:00;-1.50;99.90
44509;DHT22;30214;52.246;14.408;2023-01-28T00:50:28;-1.40;99.90
44509;DHT22;30214;52.246;14.408;2023-01-28T00:52:57;-1.60;99.90
44509;DHT22;30214;52.246;14.408;2023-01-28T00:55:26;-1.60;99.90
44509;DHT22;30214;52.246;14.408;2023-01-28T00:57:54;-1.60;99.90
44509;DHT22;30214;52.246;14.408;2023-01-28T01:00:21;-1.60;99.90
44509;DHT22;30214;52.246;14.408;2023-01-28T01:02:50;-1.60;99.90
44509;DHT22;30214;52.246;14.408;2023-01-28T01:05:17;-1.60;99.90
44509;DHT22;30214;52.246;14.408;2023-01-28T01:07:44;-1.60;99.90
44509;DHT22;30214;52.246;14.408;2023-01-28T01:10:13;-1.60;99.90
44509;DHT22;30214;52.246;14.408;2023-01-28T01:12:45;-1.60;99.90
44509;DHT22;30214;52.246;14.408;2023-01-28T01:15:13;-1.60;99.90
44509;DHT22;30214;52.246;14.408;2023-01-28T01:17:42;-1.60;99.90
44509;DHT22;30214;52.246;14.408;2023-01-28T01:20:13;-1.70;99.90
44509;DHT22;30214;52.246;14.408;2023-01-28T01:22:42;-1.70;99.90
44509;DHT22;30214;52.246;14.408;2023-01-28T01:25:11;-1.70;99.90
44509;DHT22;30214;52.246;14.408;2023-01-28T01:27:40;-1.80;99.90
44509;DHT22;30214;52.246;14.408;2023-01-28T01:30:10;-1.80;99.90
44509;DHT22;30214;52.246;14.408;2023-01-28T01:32:38;-1.80;99.90
44509;DHT22;30214;52.246;14.408;2023-01-28T01:35:07;-1.90;99.90
44509;DHT22;30214;52.246;14.408;2023-01-28T01:37:38;-2.00;99.90
44509;DHT22;30214;52.246;14.408;2023-01-28T01:40:07;-2.00;99.90
44509;DHT22;30214;52.246;14.408;2023-01-28T01:42:36;-2.00;99.90
44509;DHT22;30214;52.246;14.408;2023-01-28T01:45:04;-2.00;99.90
44509;DHT22;30214;52.246;14.408;2023-01-28T01:47:41;-2.00;99.90
44509;DHT22;30214;52.246;14.408;2023-01-28T01:50:17;-2.00;99.90
44509;DHT22;30214;52.246;14.408;2023-01-28T01:52:49;-2.10;99.90
44509;DHT22;30214;52.246;14.408;2023-01-28T01:55:22;-2.10;99.90
44509;DHT22;30214;52.246;14.408;2023-01-28T01:57:52;-2.20;99.90
44509;DHT22;30214;52.246;14.408;2023-01-28T02:00:22;-2.20;99.90
44509;DHT22;30214;52.246;14.408;2023-01-28T02:02:51;-2.30;99.90
44509;DHT22;30214;52.246;14.408;2023-01-28T02:05:21;-2.30;99.90
44509;DHT22;30214;52.246;14.408;2023-01-28T02:07:50;-2.30;99.90
44509;DHT22;30214;52.246;14.408;2023-01-28T02:10:20;-2.40;99.90
44509;DHT22;30214;52.246;14.408;2023-01-28T02:12:51;-2.50;99.90
44509;DHT22;30214;52.246;14.408;2023-01-28T02:15:25;-2.50;99.90
44509;DHT22;30214;52.246;14.408;2023-01-28T02:17:56;-2.50;99.90
44509;DHT22;30214;52.246;14.408;2023-01-28T02:20:27;-2.50;99.90
44509;DHT22;30214;52.246;14.408;2023-01-28T02:23:21;-2.50;99.90
44509;DHT22;30214;52.246;14.408;2023-01-28T02:26:22;-2.50;99.90
44509;DHT22;30214;52.246;14.408;2023-01-28T02:28:57;-2.50;99.90
44509;DHT22;30214;52.246;14.408;2023-01-28T02:31:31;-2.50;99.90
44509;DHT22;30214;52.246;14.408;2023-01-28T02:34:06;-2.60;99.90
44509;DHT22;30214;52.246;14.408;2023-01-28T02:36:44;-2.50;99.90
44509;DHT22;30214;52.246;14.408;2023-01-28T02:39:17;-2.50;99.90
44509;DHT22;30214;52.246;14.408;2023-01-28T02:41:49;-2.50;99.90
44509;DHT22;30214;52.246;14.408;2023-01-28T02:44:20;-2.50;99.90
44509;DHT22;30214;52.246;14.408;2023-01-28T02:46:50;-2.50;99.90
44509;DHT22;30214;52.246;14.408;2023-01-28T02:49:40;-2.40;99.90
44509;DHT22;30214;52.246;14.408;2023-01-28T02:52:24;-2.40;99.90
44509;DHT22;30214;52.246;14.408;2023-01-28T02:55:22;-2.40;99.90
44509;DHT22;30214;52.246;14.408;2023-01-28T02:58:00;-2.30;99.90
44509;DHT22;30214;52.246;14.408;2023-01-28T03:00:43;-2.30;99.90
44509;DHT22;30214;52.246;14.408;2023-01-28T03:03:17;-2.30;99.90
44509;DHT22;30214;52.246;14.408;2023-01-28T03:05:51;-2.30;99.90
44509;DHT22;30214;52.246;14.408;2023-01-28T03:08:37;-2.30;99.90
44509;DHT22;30214;52.246;14.408;2023-01-28T03:11:24;-2.20;99.90
44509;DHT22;30214;52.246;14.408;2023-01-28T03:14:10;-2.20;99.90
44509;DHT22;30214;52.246;14.408;2023-01-28T03:16:59;-2.10;99.90
44509;DHT22;30214;52.246;14.408;2023-01-28T03:19:45;-2.00;99.90
44509;DHT22;30214;52.246;14.408;2023-01-28T03:22:31;-2.00;99.90
44509;DHT22;30214;52.246;14.408;2023-01-28T03:25:19;-1.90;99.90
44509;DHT22;30214;52.246;14.408;2023-01-28T03:28:09;-1.90;99.90
44509;DHT22;30214;52.246;14.408;2023-01-28T03:31:02;-1.90;99.90
44509;DHT22;30214;52.246;14.408;2023-01-28T03:33:53;-1.80;99.90
44509;DHT22;30214;52.246;14.408;2023-01-28T03:36:39;-1.80;99.90
44509;DHT22;30214;52.246;14.408;2023-01-28T03:39:34;-1.80;99.90
44509;DHT22;30214;52.246;14.408;2023-01-28T03:42:04;-1.70;99.90
44509;DHT22;30214;52.246;14.408;2023-01-28T03:44:35;-1.70;99.90
44509;DHT22;30214;52.246;14.408;2023-01-28T03:47:22;-1.60;99.90
44509;DHT22;30214;52.246;14.408;2023-01-28T03:49:53;-1.60;99.90
44509;DHT22;30214;52.246;14.408;2023-01-28T03:52:23;-1.60;99.90
44509;DHT22;30214;52.246;14.408;2023-01-28T03:54:55;-1.50;99.90
44509;DHT22;30214;52.246;14.408;2023-01-28T03:57:24;-1.50;99.90
44509;DHT22;30214;52.246;14.408;2023-01-28T03:59:52;-1.50;99.90
44509;DHT22;30214;52.246;14.408;2023-01-28T04:02:22;-1.60;99.90
44509;DHT22;30214;52.246;14.408;2023-01-28T04:04:52;-1.50;99.90
44509;DHT22;30214;52.246;14.408;2023-01-28T04:07:20;-1.50;99.90
44509;DHT22;30214;52.246;14.408;2023-01-28T04:10:10;-1.50;99.90
44509;DHT22;30214;52.246;14.408;2023-01-28T04:13:04;-1.40;99.90
44509;DHT22;30214;52.246;14.408;2023-01-28T04:15:31;-1.50;99.90
44509;DHT22;30214;52.246;14.408;2023-01-28T04:17:58;-1.40;99.90
44509;DHT22;30214;52.246;14.408;2023-01-28T04:20:30;-1.40;99.90
44509;DHT22;30214;52.246;14.408;2023-01-28T04:22:59;-1.30;99.90
44509;DHT22;30214;52.246;14.408;2023-01-28T04:25:27;-1.30;99.90
44509;DHT22;30214;52.246;14.408;2023-01-28T04:27:54;-1.20;99.90
44509;DHT22;30214;52.246;14.408;2023-01-28T04:30:24;-1.20;99.90
44509;DHT22;30214;52.246;14.408;2023-01-28T04:33:05;-1.20;99.90
44509;DHT22;30214;52.246;14.408;2023-01-28T04:35:43;-1.10;99.90
44509;DHT22;30214;52.246;14.408;2023-01-28T04:38:19;-1.20;99.90
44509;DHT22;30214;52.246;14.408;2023-01-28T04:40:55;-1.20;99.90
44509;DHT22;30214;52.246;14.408;2023-01-28T04:43:25;-1.20;99.90
44509;DHT22;30214;52.246;14.408;2023-01-28T04:46:11;-1.20;99.90
44509;DHT22;30214;52.246;14.408;2023-01-28T04:48:57;-1.10;99.90
44509;DHT22;30214;52.246;14.408;2023-01-28T04:51:52;-1.10;99.90
44509;DHT22;30214;52.246;14.408;2023-01-28T04:54:31;-1.10;99.90
44509;DHT22;30214;52.246;14.408;2023-01-28T04:57:00;-1.10;99.90
44509;DHT22;30214;52.246;14.408;2023-01-28T04:59:28;-1.10;99.90
44509;DHT22;30214;52.246;14.408;2023-01-28T05:01:55;-1.10;99.90
44509;DHT22;30214;52.246;14.408;2023-01-28T05:04:22;-1.10;99.90
44509;DHT22;30214;52.246;14.408;2023-01-28T05:06:52;-1.10;99.90
44509;DHT22;30214;52.246;14.408;2023-01-28T05:09:24;-1.10;99.90
44509;DHT22;30214;52.246;14.408;2023-01-28T05:11:51;-1.10;99.90
44509;DHT22;30214;52.246;14.408;2023-01-28T05:14:18;-1.10;99.90
44509;DHT22;30214;52.246;14.408;2023-01-28T05:17:14;-1.10;99.90
44509;DHT22;30214;52.246;14.408;2023-01-28T05:19:43;-1.10;99.90
44509;DHT22;30214;52.246;14.408;2023-01-28T05:22:18;-1.20;99.90
44509;DHT22;30214;52.246;14.408;2023-01-28T05:25:09;-1.30;99.90
44509;DHT22;30214;52.246;14.408;2023-01-28T05:27:36;-1.30;99.90
44509;DHT22;30214;52.246;14.408;2023-01-28T05:30:04;-1.20;99.90
44509;DHT22;30214;52.246;14.408;2023-01-28T05:32:32;-1.20;99.90
44509;DHT22;30214;52.246;14.408;2023-01-28T05:35:00;-1.00;99.90
44509;DHT22;30214;52.246;14.408;2023-01-28T05:37:28;-1.00;99.90
44509;DHT22;30214;52.246;14.408;2023-01-28T05:39:57;-1.00;99.90
44509;DHT22;30214;52.246;14.408;2023-01-28T05:42:24;-1.10;99.90
44509;DHT22;30214;52.246;14.408;2023-01-28T05:45:00;-1.00;99.90
44509;DHT22;30214;52.246;14.408;2023-01-28T05:47:58;-1.00;99.90
44509;DHT22;30214;52.246;14.408;2023-01-28T05:50:38;-1.00;99.90
44509;DHT22;30214;52.246;14.408;2023-01-28T05:53:12;-1.00;99.90
44509;DHT22;30214;52.246;14.408;2023-01-28T05:55:42;-1.00;99.90
44509;DHT22;30214;52.246;14.408;2023-01-28T05:58:10;-1.00;99.90
44509;DHT22;30214;52.246;14.408;2023-01-28T06:00:37;-1.00;99.90
44509;DHT22;30214;52.246;14.408;2023-01-28T06:03:04;-1.10;99.90
44509;DHT22;30214;52.246;14.408;2023-01-28T06:05:33;-1.00;99.90
44509;DHT22;30214;52.246;14.408;2023-01-28T06:08:01;-1.00;99.90
44509;DHT22;30214;52.246;14.408;2023-01-28T06:10:29;-1.00;99.90
44509;DHT22;30214;52.246;14.408;2023-01-28T06:12:56;-0.90;99.90
44509;DHT22;30214;52.246;14.408;2023-01-28T06:15:29;-0.90;99.90
44509;DHT22;30214;52.246;14.408;2023-01-28T06:18:02;-0.90;99.90
44509;DHT22;30214;52.246;14.408;2023-01-28T06:20:32;-0.90;99.90
44509;DHT22;30214;52.246;14.408;2023-01-28T06:23:00;-0.90;99.90
44509;DHT22;30214;52.246;14.408;2023-01-28T06:25:29;-0.90;99.90
44509;DHT22;30214;52.246;14.408;2023-01-28T06:28:01;-0.90;99.90
44509;DHT22;30214;52.246;14.408;2023-01-28T06:30:28;-0.90;99.90
44509;DHT22;30214;52.246;14.408;2023-01-28T06:32:55;-0.90;99.90
44509;DHT22;30214;52.246;14.408;2023-01-28T06:35:23;-1.00;99.90
44509;DHT22;30214;52.246;14.408;2023-01-28T06:37:51;-0.90;99.90
44509;DHT22;30214;52.246;14.408;2023-01-28T06:40:19;-0.90;99.90
44509;DHT22;30214;52.246;14.408;2023-01-28T06:42:48;-0.80;99.90
44509;DHT22;30214;52.246;14.408;2023-01-28T06:45:15;-0.80;99.90
44509;DHT22;30214;52.246;14.408;2023-01-28T06:47:42;-0.80;99.90
44509;DHT22;30214;52.246;14.408;2023-01-28T06:50:10;-0.80;99.90
44509;DHT22;30214;52.246;14.408;2023-01-28T06:52:38;-0.80;99.90
44509;DHT22;30214;52.246;14.408;2023-01-28T06:55:06;-0.80;99.90
44509;DHT22;30214;52.246;14.408;2023-01-28T06:57:36;-0.80;99.90
44509;DHT22;30214;52.246;14.408;2023-01-28T07:00:07;-0.80;99.90
44509;DHT22;30214;52.246;14.408;2023-01-28T07:02:35;-0.70;99.90
44509;DHT22;30214;52.246;14.408;2023-01-28T07:05:02;-0.80;99.90
44509;DHT22;30214;52.246;14.408;2023-01-28T07:07:30;-0.80;99.90
44509;DHT22;30214;52.246;14.408;2023-01-28T07:09:57;-0.80;99.90
44509;DHT22;30214;52.246;14.408;2023-01-28T07:12:24;-0.80;99.90
44509;DHT22;30214;52.246;14.408;2023-01-28T07:14:51;-0.80;99.90
44509;DHT22;30214;52.246;14.408;2023-01-28T07:17:20;-0.80;99.90
44509;DHT22;30214;52.246;14.408;2023-01-28T07:19:47;-0.80;99.90
44509;DHT22;30214;52.246;14.408;2023-01-28T07:22:15;-0.70;99.90
44509;DHT22;30214;52.246;14.408;2023-01-28T07:24:42;-0.60;99.90
44509;DHT22;30214;52.246;14.408;2023-01-28T07:27:10;-0.60;99.90
44509;DHT22;30214;52.246;14.408;2023-01-28T07:29:37;-0.60;99.90
44509;DHT22;30214;52.246;14.408;2023-01-28T07:32:04;-0.70;99.90
44509;DHT22;30214;52.246;14.408;2023-01-28T07:34:33;-0.70;99.90
44509;DHT22;30214;52.246;14.408;2023-01-28T07:37:02;-0.70;99.90
44509;DHT22;30214;52.246;14.408;2023-01-28T07:39:30;-0.60;99.90
44509;DHT22;30214;52.246;14.408;2023-01-28T07:41:57;-0.70;99.90
44509;DHT22;30214;52.246;14.408;2023-01-28T07:44:38;-0.70;99.90
44509;DHT22;30214;52.246;14.408;2023-01-28T07:47:05;-0.70;99.90
44509;DHT22;30214;52.246;14.408;2023-01-28T07:49:34;-0.60;99.90
44509;DHT22;30214;52.246;14.408;2023-01-28T07:52:04;-0.50;99.90
44509;DHT22;30214;52.246;14.408;2023-01-28T07:54:31;-0.60;99.90
44509;DHT22;30214;52.246;14.408;2023-01-28T07:57:00;-0.50;99.90
44509;DHT22;30214;52.246;14.408;2023-01-28T07:59:27;-0.50;99.90
44509;DHT22;30214;52.246;14.408;2023-01-28T08:01:54;-0.50;99.90
44509;DHT22;30214;52.246;14.408;2023-01-28T08:04:21;-0.50;99.90
44509;DHT22;30214;52.246;14.408;2023-01-28T08:06:50;-0.50;99.90
44509;DHT22;30214;52.246;14.408;2023-01-28T08:09:17;-0.40;99.90
44509;DHT22;30214;52.246;14.408;2023-01-28T08:11:44;-0.50;99.90
44509;DHT22;30214;52.246;14.408;2023-01-28T08:14:11;-0.50;99.90
44509;DHT22;30214;52.246;14.408;2023-01-28T08:16:38;-0.50;99.90
44509;DHT22;30214;52.246;14.408;2023-01-28T08:19:05;-0.20;99.90
44509;DHT22;30214;52.246;14.408;2023-01-28T08:21:32;-0.20;99.90
44509;DHT22;30214;52.246;14.408;2023-01-28T08:24:01;-0.10;99.90
44509;DHT22;30214;52.246;14.408;2023-01-28T08:26:28;-0.10;99.90
44509;DHT22;30214;52.246;14.408;2023-01-28T08:28:55;-0.10;99.90
44509;DHT22;30214;52.246;14.408;2023-01-28T08:31:22;-0.20;99.90
44509;DHT22;30214;52.246;14.408;2023-01-28T08:33:49;-0.30;99.90
44509;DHT22;30214;52.246;14.408;2023-01-28T08:36:16;-0.20;99.90
44509;DHT22;30214;52.246;14.408;2023-01-28T08:38:43;-0.10;99.90
44509;DHT22;30214;52.246;14.408;2023-01-28T08:41:12;-0.20;99.90
44509;DHT22;30214;52.246;14.408;2023-01-28T08:43:39;-0.20;99.90
44509;DHT22;30214;52.246;14.408;2023-01-28T08:46:06;-0.10;99.90
44509;DHT22;30214;52.246;14.408;2023-01-28T08:48:33;-0.10;99.90
44509;DHT22;30214;52.246;14.408;2023-01-28T08:51:03;-0.10;99.90
44509;DHT22;30214;52.246;14.408;2023-01-28T08:53:32;0.00;99.90
44509;DHT22;30214;52.246;14.408;2023-01-28T08:56:00;-0.10;99.90
44509;DHT22;30214;52.246;14.408;2023-01-28T08:58:28;0.20;99.90
44509;DHT22;30214;52.246;14.408;2023-01-28T09:00:55;1.20;99.90
44509;DHT22;30214;52.246;14.408;2023-01-28T09:03:23;1.90;99.90
44509;DHT22;30214;52.246;14.408;2023-01-28T09:05:50;1.90;99.90
44509;DHT22;30214;52.246;14.408;2023-01-28T09:08:17;1.70;99.90
44509;DHT22;30214;52.246;14.408;2023-01-28T09:10:44;1.50;99.90
44509;DHT22;30214;52.246;14.408;2023-01-28T09:13:13;1.30;99.90
44509;DHT22;30214;52.246;14.408;2023-01-28T09:15:43;1.30;99.90
44509;DHT22;30214;52.246;14.408;2023-01-28T09:18:12;1.20;99.90
44509;DHT22;30214;52.246;14.408;2023-01-28T09:20:42;1.40;99.90
44509;DHT22;30214;52.246;14.408;2023-01-28T09:23:09;1.50;99.90
44509;DHT22;30214;52.246;14.408;2023-01-28T09:25:37;1.50;99.90
44509;DHT22;30214;52.246;14.408;2023-01-28T09:28:04;1.40;99.90
44509;DHT22;30214;52.246;14.408;2023-01-28T09:30:34;1.20;99.90
44509;DHT22;30214;52.246;14.408;2023-01-28T09:33:03;1.10;99.90
44509;DHT22;30214;52.246;14.408;2023-01-28T09:35:32;1.10;99.90
44509;DHT22;30214;52.246;14.408;2023-01-28T09:38:00;1.00;99.90
44509;DHT22;30214;52.246;14.408;2023-01-28T09:40:31;1.00;99.90
44509;DHT22;30214;52.246;14.408;2023-01-28T09:43:19;1.00;99.90
44509;DHT22;30214;52.246;14.408;2023-01-28T09:45:57;1.10;99.90
44509;DHT22;30214;52.246;14.408;2023-01-28T09:48:29;1.00;99.90
44509;DHT22;30214;52.246;14.408;2023-01-28T09:51:05;0.90;99.90
44509;DHT22;30214;52.246;14.408;2023-01-28T09:53:39;1.00;99.90
44509;DHT22;30214;52.246;14.408;2023-01-28T09:56:13;1.10;99.90
44509;DHT22;30214;52.246;14.408;2023-01-28T09:58:45;1.20;99.90
44509;DHT22;30214;52.246;14.408;2023-01-28T10:01:31;1.20;99.90
44509;DHT22;30214;52.246;14.408;2023-01-28T10:04:10;1.30;99.90
44509;DHT22;30214;52.246;14.408;2023-01-28T10:06:54;1.40;99.90
44509;DHT22;30214;52.246;14.408;2023-01-28T10:09:34;1.40;99.90
44509;DHT22;30214;52.246;14.408;2023-01-28T10:12:38;1.40;99.90
44509;DHT22;30214;52.246;14.408;2023-01-28T10:15:38;1.50;99.90
44509;DHT22;30214;52.246;14.408;2023-01-28T10:18:12;1.60;99.90
44509;DHT22;30214;52.246;14.408;2023-01-28T10:20:43;1.50;99.90
44509;DHT22;30214;52.246;14.408;2023-01-28T10:23:16;1.60;99.90
44509;DHT22;30214;52.246;14.408;2023-01-28T10:25:47;1.60;99.90
44509;DHT22;30214;52.246;14.408;2023-01-28T10:28:19;1.50;99.90
44509;DHT22;30214;52.246;14.408;2023-01-28T10:30:48;1.40;99.90
44509;DHT22;30214;52.246;14.408;2023-01-28T10:33:19;1.50;99.90
44509;DHT22;30214;52.246;14.408;2023-01-28T10:35:50;1.50;99.90
44509;DHT22;30214;52.246;14.408;2023-01-28T10:38:20;1.60;99.90
44509;DHT22;30214;52.246;14.408;2023-01-28T10:40:49;1.60;99.90
44509;DHT22;30214;52.246;14.408;2023-01-28T10:43:18;1.60;99.90
44509;DHT22;30214;52.246;14.408;2023-01-28T10:45:54;1.70;99.90
44509;DHT22;30214;52.246;14.408;2023-01-28T10:48:25;1.70;99.90
44509;DHT22;30214;52.246;14.408;2023-01-28T10:50:58;1.70;99.90
44509;DHT22;30214;52.246;14.408;2023-01-28T10:53:34;1.70;99.90
44509;DHT22;30214;52.246;14.408;2023-01-28T10:56:04;1.70;99.90
44509;DHT22;30214;52.246;14.408;2023-01-28T10:58:36;1.70;99.90
44509;DHT22;30214;52.246;14.408;2023-01-28T11:01:14;1.70;99.90
44509;DHT22;30214;52.246;14.408;2023-01-28T11:03:53;1.70;99.90
44509;DHT22;30214;52.246;14.408;2023-01-28T11:06:27;1.80;99.90
44509;DHT22;30214;52.246;14.408;2023-01-28T11:08:55;1.70;99.90
44509;DHT22;30214;52.246;14.408;2023-01-28T11:11:24;1.80;99.90
44509;DHT22;30214;52.246;14.408;2023-01-28T11:13:53;1.80;99.90
44509;DHT22;30214;52.246;14.408;2023-01-28T11:16:24;1.80;99.90
44509;DHT22;30214;52.246;14.408;2023-01-28T11:18:53;1.80;99.90
44509;DHT22;30214;52.246;14.408;2023-01-28T11:21:25;1.70;99.90
44509;DHT22;30214;52.246;14.408;2023-01-28T11:23:56;1.80;99.90
44509;DHT22;30214;52.246;14.408;2023-01-28T11:26:27;1.90;99.90
44509;DHT22;30214;52.246;14.408;2023-01-28T11:28:56;1.90;99.90
44509;DHT22;30214;52.246;14.408;2023-01-28T11:31:25;2.00;99.90
44509;DHT22;30214;52.246;14.408;2023-01-28T11:33:55;2.00;99.90
44509;DHT22;30214;52.246;14.408;2023-01-28T11:36:24;1.80;99.90
44509;DHT22;30214;52.246;14.408;2023-01-28T11:38:55;1.80;99.90
44509;DHT22;30214;52.246;14.408;2023-01-28T11:41:26;1.80;99.90
44509;DHT22;30214;52.246;14.408;2023-01-28T11:43:54;1.90;99.90
44509;DHT22;30214;52.246;14.408;2023-01-28T11:49:51;2.00;99.90
44509;DHT22;30214;52.246;14.408;2023-01-28T11:52:37;2.10;99.90
44509;DHT22;30214;52.246;14.408;2023-01-28T11:55:23;2.00;99.90
44509;DHT22;30214;52.246;14.408;2023-01-28T11:58:11;2.00;99.90
44509;DHT22;30214;52.246;14.408;2023-01-28T12:00:53;2.00;99.90
44509;DHT22;30214;52.246;14.408;2023-01-28T12:03:54;2.00;99.90
44509;DHT22;30214;52.246;14.408;2023-01-28T12:06:45;2.00;99.90
44509;DHT22;30214;52.246;14.408;2023-01-28T12:09:25;1.80;99.90
44509;DHT22;30214;52.246;14.408;2023-01-28T12:12:09;1.80;99.90
44509;DHT22;30214;52.246;14.408;2023-01-28T12:15:04;2.00;99.90
44509;DHT22;30214;52.246;14.408;2023-01-28T12:17:55;2.50;99.90
44509;DHT22;30214;52.246;14.408;2023-01-28T12:20:32;2.30;99.90
44509;DHT22;30214;52.246;14.408;2023-01-28T12:23:27;2.20;99.90
44509;DHT22;30214;52.246;14.408;2023-01-28T12:26:07;2.00;99.90
44509;DHT22;30214;52.246;14.408;2023-01-28T12:28:50;1.90;99.90
44509;DHT22;30214;52.246;14.408;2023-01-28T12:31:38;1.70;99.90
44509;DHT22;30214;52.246;14.408;2023-01-28T12:34:35;1.70;99.90
44509;DHT22;30214;52.246;14.408;2023-01-28T12:37:15;1.80;99.90
44509;DHT22;30214;52.246;14.408;2023-01-28T12:39:59;1.90;99.90
44509;DHT22;30214;52.246;14.408;2023-01-28T12:42:39;2.00;99.90
44509;DHT22;30214;52.246;14.408;2023-01-28T12:45:15;2.00;99.90
44509;DHT22;30214;52.246;14.408;2023-01-28T12:47:49;2.00;99.90
44509;DHT22;30214;52.246;14.408;2023-01-28T12:50:23;2.00;99.90
44509;DHT22;30214;52.246;14.408;2023-01-28T12:52:55;2.10;99.90
44509;DHT22;30214;52.246;14.408;2023-01-28T12:55:35;2.00;99.90
44509;DHT22;30214;52.246;14.408;2023-01-28T12:58:08;2.00;99.90
44509;DHT22;30214;52.246;14.408;2023-01-28T13:00:42;2.00;99.90
44509;DHT22;30214;52.246;14.408;2023-01-28T13:03:17;2.00;99.90
44509;DHT22;30214;52.246;14.408;2023-01-28T13:05:50;2.10;99.90
44509;DHT22;30214;52.246;14.408;2023-01-28T13:08:22;2.10;99.90
44509;DHT22;30214;52.246;14.408;2023-01-28T13:10:50;2.20;99.90
44509;DHT22;30214;52.246;14.408;2023-01-28T13:13:26;2.10;99.90
44509;DHT22;30214;52.246;14.408;2023-01-28T13:15:56;2.10;99.90
44509;DHT22;30214;52.246;14.408;2023-01-28T13:18:31;2.00;99.90
44509;DHT22;30214;52.246;14.408;2023-01-28T13:21:01;1.90;99.90
44509;DHT22;30214;52.246;14.408;2023-01-28T13:23:38;1.80;99.90
44509;DHT22;30214;52.246;14.408;2023-01-28T13:26:25;1.70;99.90
44509;DHT22;30214;52.246;14.408;2023-01-28T13:29:21;1.80;99.90
44509;DHT22;30214;52.246;14.408;2023-01-28T13:31:56;1.80;99.90
44509;DHT22;30214;52.246;14.408;2023-01-28T13:34:33;1.70;99.90
44509;DHT22;30214;52.246;14.408;2023-01-28T13:37:05;1.70;99.90
44509;DHT22;30214;52.246;14.408;2023-01-28T13:39:46;1.60;99.90
44509;DHT22;30214;52.246;14.408;2023-01-28T13:42:23;1.90;99.90
44509;DHT22;30214;52.246;14.408;2023-01-28T13:44:54;1.90;99.90
44509;DHT22;30214;52.246;14.408;2023-01-28T13:47:26;2.00;99.90
44509;DHT22;30214;52.246;14.408;2023-01-28T13:50:00;1.90;99.90
44509;DHT22;30214;52.246;14.408;2023-01-28T13:52:31;1.90;99.90
44509;DHT22;30214;52.246;14.408;2023-01-28T13:55:04;1.80;99.90
44509;DHT22;30214;52.246;14.408;2023-01-28T13:57:51;1.70;99.90
44509;DHT22;30214;52.246;14.408;2023-01-28T14:04:29;1.70;99.90
44509;DHT22;30214;52.246;14.408;2023-01-28T14:13:32;1.40;99.90
44509;DHT22;30214;52.246;14.408;2023-01-28T14:16:29;1.40;99.90
44509;DHT22;30214;52.246;14.408;2023-01-28T14:19:02;1.50;99.90
44509;DHT22;30214;52.246;14.408;2023-01-28T14:21:33;1.60;99.90
44509;DHT22;30214;52.246;14.408;2023-01-28T14:24:01;1.60;99.90
44509;DHT22;30214;52.246;14.408;2023-01-28T14:26:38;1.60;99.90
44509;DHT22;30214;52.246;14.408;2023-01-28T14:29:21;1.60;99.90
44509;DHT22;30214;52.246;14.408;2023-01-28T14:31:54;1.50;99.90
44509;DHT22;30214;52.246;14.408;2023-01-28T14:34:25;1.50;99.90
44509;DHT22;30214;52.246;14.408;2023-01-28T14:37:00;1.50;99.90
44509;DHT22;30214;52.246;14.408;2023-01-28T14:39:39;1.50;99.90
44509;DHT22;30214;52.246;14.408;2023-01-28T14:42:18;1.50;99.90
44509;DHT22;30214;52.246;14.408;2023-01-28T14:44:59;1.40;99.90
44509;DHT22;30214;52.246;14.408;2023-01-28T14:48:14;1.30;99.90
44509;DHT22;30214;52.246;14.408;2023-01-28T14:51:16;1.20;99.90
44509;DHT22;30214;52.246;14.408;2023-01-28T14:54:31;1.30;99.90
44509;DHT22;30214;52.246;14.408;2023-01-28T14:57:13;1.20;99.90
44509;DHT22;30214;52.246;14.408;2023-01-28T14:59:50;1.20;99.90
44509;DHT22;30214;52.246;14.408;2023-01-28T15:02:21;1.30;99.90
44509;DHT22;30214;52.246;14.408;2023-01-28T15:04:54;1.30;99.90
44509;DHT22;30214;52.246;14.408;2023-01-28T15:07:34;1.30;99.90
44509;DHT22;30214;52.246;14.408;2023-01-28T15:10:06;1.20;99.90
44509;DHT22;30214;52.246;14.408;2023-01-28T15:12:44;1.20;99.90
44509;DHT22;30214;52.246;14.408;2023-01-28T15:15:24;1.20;99.90
44509;DHT22;30214;52.246;14.408;2023-01-28T15:18:01;1.20;99.90
44509;DHT22;30214;52.246;14.408;2023-01-28T15:20:32;1.20;99.90
44509;DHT22;30214;52.246;14.408;2023-01-28T15:23:00;1.10;99.90
44509;DHT22;30214;52.246;14.408;2023-01-28T15:25:30;1.20;99.90
44509;DHT22;30214;52.246;14.408;2023-01-28T15:28:00;1.20;99.90
44509;DHT22;30214;52.246;14.408;2023-01-28T15:30:31;1.30;99.90
44509;DHT22;30214;52.246;14.408;2023-01-28T15:33:03;1.30;99.90
44509;DHT22;30214;52.246;14.408;2023-01-28T15:35:35;1.30;99.90
44509;DHT22;30214;52.246;14.408;2023-01-28T15:38:02;1.30;99.90
44509;DHT22;30214;52.246;14.408;2023-01-28T15:40:30;1.30;99.90
44509;DHT22;30214;52.246;14.408;2023-01-28T15:43:16;1.30;99.90
44509;DHT22;30214;52.246;14.408;2023-01-28T15:45:45;1.40;99.90
44509;DHT22;30214;52.246;14.408;2023-01-28T15:48:15;1.40;99.90
44509;DHT22;30214;52.246;14.408;2023-01-28T15:50:57;1.40;99.90
44509;DHT22;30214;52.246;14.408;2023-01-28T15:53:30;1.40;99.90
44509;DHT22;30214;52.246;14.408;2023-01-28T15:56:08;1.40;99.90
44509;DHT22;30214;52.246;14.408;2023-01-28T15:58:37;1.40;99.90
44509;DHT22;30214;52.246;14.408;2023-01-28T16:01:17;1.40;99.90
44509;DHT22;30214;52.246;14.408;2023-01-28T16:03:58;1.30;99.90
44509;DHT22;30214;52.246;14.408;2023-01-28T16:06:33;1.30;99.90
44509;DHT22;30214;52.246;14.408;2023-01-28T16:09:03;1.30;99.90
44509;DHT22;30214;52.246;14.408;2023-01-28T16:11:34;1.30;99.90
44509;DHT22;30214;52.246;14.408;2023-01-28T16:14:23;1.30;99.90
44509;DHT22;30214;52.246;14.408;2023-01-28T16:16:55;1.20;99.90